Terminal Aerodrome Forecast
Issued by NWS Memphis, TN

Home | Current Version | Previous Version | Text Only | Print | Product List | Glossary On
Versions: 1 2 3 4 5 6 7 8 9 10 11 12 13 14 15 16 17 18 19 20
079
FTUS44 KMEG 290909 AAA
TAFJBR
TAF AMD
KJBR 290909Z 2909/3006 06010KT P6SM BKN060
     FM291200 09008KT P6SM BKN015
     FM291700 15013G19KT P6SM BKN035
     FM292000 15012G19KT P6SM BKN200
     FM300000 16010KT P6SM SCT060 BKN120
     FM300200 13008KT P6SM VCTS BKN050CB=

USA.gov is the U.S. government's official web portal to all federal, state and local government web resources and services.